sensor_id;sensor_type;location;lat;lon;timestamp;pressure;altitude;pressure_sealevel;temperature;humidity
40730;BME280;26418;50.070;8.436;2023-03-26T00:00:11;99379.59;;;6.82;87.89
40730;BME280;26418;50.070;8.436;2023-03-26T00:02:37;99373.94;;;6.83;88.09
40730;BME280;26418;50.070;8.436;2023-03-26T00:05:05;99380.91;;;6.84;88.27
40730;BME280;26418;50.070;8.436;2023-03-26T00:07:31;99377.41;;;6.84;88.33
40730;BME280;26418;50.070;8.436;2023-03-26T00:09:56;99372.34;;;6.82;88.32
40730;BME280;26418;50.070;8.436;2023-03-26T00:12:24;99366.97;;;6.82;88.63
40730;BME280;26418;50.070;8.436;2023-03-26T00:14:50;99370.22;;;6.79;88.68
40730;BME280;26418;50.070;8.436;2023-03-26T00:17:17;99367.53;;;6.79;88.79
40730;BME280;26418;50.070;8.436;2023-03-26T00:19:43;99363.25;;;6.78;89.00
40730;BME280;26418;50.070;8.436;2023-03-26T00:22:08;99370.56;;;6.72;89.37
40730;BME280;26418;50.070;8.436;2023-03-26T00:24:38;99372.47;;;6.72;89.46
40730;BME280;26418;50.070;8.436;2023-03-26T00:27:04;99371.16;;;6.69;89.72
40730;BME280;26418;50.070;8.436;2023-03-26T00:29:30;99359.97;;;6.62;89.93
40730;BME280;26418;50.070;8.436;2023-03-26T00:31:58;99376.56;;;6.64;90.01
40730;BME280;26418;50.070;8.436;2023-03-26T00:34:24;99375.56;;;6.60;90.22
40730;BME280;26418;50.070;8.436;2023-03-26T00:36:50;99367.00;;;6.58;90.40
40730;BME280;26418;50.070;8.436;2023-03-26T00:39:19;99381.25;;;6.58;90.48
40730;BME280;26418;50.070;8.436;2023-03-26T00:41:46;99378.81;;;6.57;90.73
40730;BME280;26418;50.070;8.436;2023-03-26T00:44:12;99375.59;;;6.55;91.18
40730;BME280;26418;50.070;8.436;2023-03-26T00:46:38;99368.81;;;6.63;92.23
40730;BME280;26418;50.070;8.436;2023-03-26T00:49:03;99375.16;;;6.72;93.52
40730;BME280;26418;50.070;8.436;2023-03-26T00:51:29;99377.72;;;6.82;94.65
40730;BME280;26418;50.070;8.436;2023-03-26T00:53:56;99379.81;;;6.85;95.49
40730;BME280;26418;50.070;8.436;2023-03-26T00:56:22;99383.31;;;6.86;95.96
40730;BME280;26418;50.070;8.436;2023-03-26T00:58:48;99370.75;;;6.81;95.70
40730;BME280;26418;50.070;8.436;2023-03-26T01:01:22;99374.06;;;6.73;95.35
40730;BME280;26418;50.070;8.436;2023-03-26T01:03:52;99371.44;;;6.68;95.08
40730;BME280;26418;50.070;8.436;2023-03-26T01:06:30;99370.97;;;6.60;94.76
40730;BME280;26418;50.070;8.436;2023-03-26T01:09:16;99362.19;;;6.55;94.43
40730;BME280;26418;50.070;8.436;2023-03-26T01:11:43;99359.56;;;6.50;94.02
40730;BME280;26418;50.070;8.436;2023-03-26T01:14:12;99352.06;;;6.47;93.63
40730;BME280;26418;50.070;8.436;2023-03-26T01:16:53;99340.66;;;6.36;93.30
40730;BME280;26418;50.070;8.436;2023-03-26T01:19:43;99347.63;;;6.37;93.08
40730;BME280;26418;50.070;8.436;2023-03-26T01:22:16;99338.78;;;6.36;92.84
40730;BME280;26418;50.070;8.436;2023-03-26T01:24:42;99336.66;;;6.33;92.57
40730;BME280;26418;50.070;8.436;2023-03-26T01:27:30;99338.25;;;6.34;92.27
40730;BME280;26418;50.070;8.436;2023-03-26T01:30:28;99336.66;;;6.33;91.95
40730;BME280;26418;50.070;8.436;2023-03-26T01:33:17;99333.44;;;6.31;91.91
40730;BME280;26418;50.070;8.436;2023-03-26T01:35:53;99327.06;;;6.27;91.87
40730;BME280;26418;50.070;8.436;2023-03-26T01:44:13;99322.56;;;6.22;91.80
40730;BME280;26418;50.070;8.436;2023-03-26T01:46:41;99314.78;;;6.21;91.92
40730;BME280;26418;50.070;8.436;2023-03-26T01:49:08;99309.91;;;6.23;91.84
40730;BME280;26418;50.070;8.436;2023-03-26T01:51:39;99303.53;;;6.19;91.53
40730;BME280;26418;50.070;8.436;2023-03-26T01:54:07;99304.50;;;6.28;91.74
40730;BME280;26418;50.070;8.436;2023-03-26T01:57:05;99301.00;;;6.27;91.35
40730;BME280;26418;50.070;8.436;2023-03-26T02:05:21;99302.91;;;6.27;91.39
40730;BME280;26418;50.070;8.436;2023-03-26T02:07:54;99296.72;;;6.26;91.62
40730;BME280;26418;50.070;8.436;2023-03-26T02:10:31;99290.56;;;6.26;91.57
40730;BME280;26418;50.070;8.436;2023-03-26T02:12:58;99291.84;;;6.28;91.42
40730;BME280;26418;50.070;8.436;2023-03-26T02:15:24;99290.78;;;6.29;91.52
40730;BME280;26418;50.070;8.436;2023-03-26T02:17:50;99283.28;;;6.26;91.64
40730;BME280;26418;50.070;8.436;2023-03-26T02:20:18;99282.19;;;6.27;91.50
40730;BME280;26418;50.070;8.436;2023-03-26T02:22:45;99286.72;;;6.32;91.58
40730;BME280;26418;50.070;8.436;2023-03-26T02:25:16;99281.56;;;6.36;91.96
40730;BME280;26418;50.070;8.436;2023-03-26T02:27:43;99272.38;;;6.42;91.54
40730;BME280;26418;50.070;8.436;2023-03-26T02:30:10;99259.44;;;6.44;91.52
40730;BME280;26418;50.070;8.436;2023-03-26T02:32:36;99257.66;;;6.58;91.62
40730;BME280;26418;50.070;8.436;2023-03-26T02:35:03;99249.00;;;6.61;90.92
40730;BME280;26418;50.070;8.436;2023-03-26T02:37:30;99250.50;;;6.68;90.98
40730;BME280;26418;50.070;8.436;2023-03-26T02:39:59;99259.69;;;6.67;91.03
40730;BME280;26418;50.070;8.436;2023-03-26T02:42:25;99247.34;;;6.66;90.84
40730;BME280;26418;50.070;8.436;2023-03-26T02:44:50;99241.16;;;6.65;91.17
40730;BME280;26418;50.070;8.436;2023-03-26T02:47:16;99248.41;;;6.65;91.34
40730;BME280;26418;50.070;8.436;2023-03-26T02:49:42;99249.22;;;6.65;91.47
40730;BME280;26418;50.070;8.436;2023-03-26T02:52:07;99245.22;;;6.63;91.18
40730;BME280;26418;50.070;8.436;2023-03-26T02:54:33;99240.06;;;6.66;91.26
40730;BME280;26418;50.070;8.436;2023-03-26T02:56:59;99237.88;;;6.68;91.48
40730;BME280;26418;50.070;8.436;2023-03-26T02:59:25;99232.81;;;6.67;91.43
40730;BME280;26418;50.070;8.436;2023-03-26T03:01:51;99240.78;;;6.72;91.40
40730;BME280;26418;50.070;8.436;2023-03-26T03:04:17;99233.72;;;6.76;91.50
40730;BME280;26418;50.070;8.436;2023-03-26T03:06:43;99231.56;;;6.78;91.13
40730;BME280;26418;50.070;8.436;2023-03-26T03:09:10;99225.31;;;6.83;91.12
40730;BME280;26418;50.070;8.436;2023-03-26T03:11:37;99214.50;;;6.88;91.19
40730;BME280;26418;50.070;8.436;2023-03-26T03:14:03;99213.59;;;6.92;91.02
40730;BME280;26418;50.070;8.436;2023-03-26T03:16:29;99216.50;;;6.96;90.88
40730;BME280;26418;50.070;8.436;2023-03-26T03:18:55;99212.44;;;6.99;90.66
40730;BME280;26418;50.070;8.436;2023-03-26T03:21:23;99209.59;;;7.09;90.37
40730;BME280;26418;50.070;8.436;2023-03-26T03:23:49;99208.19;;;7.12;89.50
40730;BME280;26418;50.070;8.436;2023-03-26T03:26:17;99201.53;;;7.09;89.53
40730;BME280;26418;50.070;8.436;2023-03-26T03:28:47;99192.44;;;7.05;89.79
40730;BME280;26418;50.070;8.436;2023-03-26T03:31:13;99185.97;;;7.06;90.13
40730;BME280;26418;50.070;8.436;2023-03-26T03:33:39;99191.25;;;7.11;90.33
40730;BME280;26418;50.070;8.436;2023-03-26T03:36:11;99185.09;;;7.11;90.60
40730;BME280;26418;50.070;8.436;2023-03-26T03:38:38;99186.69;;;7.12;90.98
40730;BME280;26418;50.070;8.436;2023-03-26T03:41:06;99179.59;;;7.16;91.31
40730;BME280;26418;50.070;8.436;2023-03-26T03:43:32;99176.91;;;7.16;91.56
40730;BME280;26418;50.070;8.436;2023-03-26T03:46:01;99168.06;;;7.15;91.66
40730;BME280;26418;50.070;8.436;2023-03-26T03:48:27;99155.50;;;7.11;91.91
40730;BME280;26418;50.070;8.436;2023-03-26T03:50:53;99162.97;;;7.14;92.06
40730;BME280;26418;50.070;8.436;2023-03-26T03:53:20;99158.97;;;7.11;92.40
40730;BME280;26418;50.070;8.436;2023-03-26T03:55:46;99160.56;;;7.12;92.68
40730;BME280;26418;50.070;8.436;2023-03-26T03:58:19;99157.88;;;7.12;92.89
40730;BME280;26418;50.070;8.436;2023-03-26T04:00:48;99157.09;;;7.12;93.05
40730;BME280;26418;50.070;8.436;2023-03-26T04:03:13;99160.56;;;7.12;93.48
40730;BME280;26418;50.070;8.436;2023-03-26T04:05:39;99150.13;;;7.11;93.35
40730;BME280;26418;50.070;8.436;2023-03-26T04:08:05;99148.22;;;7.11;93.44
40730;BME280;26418;50.070;8.436;2023-03-26T04:10:31;99137.56;;;7.06;93.73
40730;BME280;26418;50.070;8.436;2023-03-26T04:12:56;99144.94;;;7.14;93.95
40730;BME280;26418;50.070;8.436;2023-03-26T04:15:22;99148.63;;;7.18;93.58
40730;BME280;26418;50.070;8.436;2023-03-26T04:17:47;99139.47;;;7.19;93.52
40730;BME280;26418;50.070;8.436;2023-03-26T04:20:13;99135.19;;;7.18;93.33
40730;BME280;26418;50.070;8.436;2023-03-26T04:22:41;99119.16;;;7.13;93.71
40730;BME280;26418;50.070;8.436;2023-03-26T04:25:08;99118.38;;;7.13;93.94
40730;BME280;26418;50.070;8.436;2023-03-26T04:27:34;99106.09;;;7.06;94.10
40730;BME280;26418;50.070;8.436;2023-03-26T04:30:01;99104.41;;;7.11;94.14
40730;BME280;26418;50.070;8.436;2023-03-26T04:32:30;99099.72;;;7.02;94.13
40730;BME280;26418;50.070;8.436;2023-03-26T04:35:00;99093.34;;;7.12;94.71
40730;BME280;26418;50.070;8.436;2023-03-26T04:37:38;99089.56;;;7.13;94.45
40730;BME280;26418;50.070;8.436;2023-03-26T04:40:13;99092.97;;;7.19;94.07
40730;BME280;26418;50.070;8.436;2023-03-26T04:42:39;99092.78;;;7.15;93.47
40730;BME280;26418;50.070;8.436;2023-03-26T04:45:15;99095.25;;;7.12;93.55
40730;BME280;26418;50.070;8.436;2023-03-26T04:47:42;99086.50;;;7.06;94.21
40730;BME280;26418;50.070;8.436;2023-03-26T04:50:09;99091.28;;;7.09;94.50
40730;BME280;26418;50.070;8.436;2023-03-26T04:52:36;99078.31;;;7.11;94.41
40730;BME280;26418;50.070;8.436;2023-03-26T04:55:04;99073.25;;;7.10;94.52
40730;BME280;26418;50.070;8.436;2023-03-26T04:57:38;99058.31;;;7.03;94.88
40730;BME280;26418;50.070;8.436;2023-03-26T05:00:08;99055.81;;;7.07;95.04
40730;BME280;26418;50.070;8.436;2023-03-26T05:02:43;99053.22;;;7.16;95.05
40730;BME280;26418;50.070;8.436;2023-03-26T05:05:10;99032.00;;;7.14;94.91
40730;BME280;26418;50.070;8.436;2023-03-26T05:07:36;99029.91;;;7.11;94.55
40730;BME280;26418;50.070;8.436;2023-03-26T05:10:03;99026.75;;;7.09;95.18
40730;BME280;26418;50.070;8.436;2023-03-26T05:12:29;99028.44;;;7.05;95.33
40730;BME280;26418;50.070;8.436;2023-03-26T05:14:55;99027.53;;;6.96;95.72
40730;BME280;26418;50.070;8.436;2023-03-26T05:17:21;99027.63;;;6.90;96.33
40730;BME280;26418;50.070;8.436;2023-03-26T05:19:48;98997.38;;;6.85;96.82
40730;BME280;26418;50.070;8.436;2023-03-26T05:22:13;99011.97;;;6.92;97.31
40730;BME280;26418;50.070;8.436;2023-03-26T05:24:39;99002.03;;;6.93;97.54
40730;BME280;26418;50.070;8.436;2023-03-26T05:27:05;99000.66;;;6.96;97.91
40730;BME280;26418;50.070;8.436;2023-03-26T05:29:30;98998.47;;;6.98;97.72
40730;BME280;26418;50.070;8.436;2023-03-26T05:31:56;98993.78;;;7.03;97.77
40730;BME280;26418;50.070;8.436;2023-03-26T05:34:21;98983.50;;;7.05;97.74
40730;BME280;26418;50.070;8.436;2023-03-26T05:36:50;98971.00;;;7.01;97.24
40730;BME280;26418;50.070;8.436;2023-03-26T05:39:16;98984.44;;;7.01;97.22
40730;BME280;26418;50.070;8.436;2023-03-26T05:41:41;98989.31;;;6.99;97.53
40730;BME280;26418;50.070;8.436;2023-03-26T05:44:07;98982.34;;;6.98;97.76
40730;BME280;26418;50.070;8.436;2023-03-26T05:46:33;98982.03;;;6.99;97.90
40730;BME280;26418;50.070;8.436;2023-03-26T05:48:58;98966.78;;;6.95;98.05
40730;BME280;26418;50.070;8.436;2023-03-26T05:51:24;98973.69;;;7.01;98.25
40730;BME280;26418;50.070;8.436;2023-03-26T05:53:50;98968.00;;;7.02;98.27
40730;BME280;26418;50.070;8.436;2023-03-26T05:56:16;98959.63;;;7.04;98.34
40730;BME280;26418;50.070;8.436;2023-03-26T05:58:41;98959.31;;;7.05;98.50
40730;BME280;26418;50.070;8.436;2023-03-26T06:01:10;98962.22;;;7.09;98.50
40730;BME280;26418;50.070;8.436;2023-03-26T06:03:42;98954.63;;;7.11;98.39
40730;BME280;26418;50.070;8.436;2023-03-26T06:06:15;98952.44;;;7.13;98.50
40730;BME280;26418;50.070;8.436;2023-03-26T06:08:43;98940.47;;;7.19;98.40
40730;BME280;26418;50.070;8.436;2023-03-26T06:11:11;98940.66;;;7.23;98.22
40730;BME280;26418;50.070;8.436;2023-03-26T06:13:38;98929.63;;;7.24;97.76
40730;BME280;26418;50.070;8.436;2023-03-26T06:16:04;98922.16;;;7.21;97.71
40730;BME280;26418;50.070;8.436;2023-03-26T06:18:30;98927.91;;;7.29;97.85
40730;BME280;26418;50.070;8.436;2023-03-26T06:20:56;98916.25;;;7.33;98.00
40730;BME280;26418;50.070;8.436;2023-03-26T06:23:21;98908.06;;;7.38;97.77
40730;BME280;26418;50.070;8.436;2023-03-26T06:25:47;98908.06;;;7.38;97.02
40730;BME280;26418;50.070;8.436;2023-03-26T06:28:14;98903.78;;;7.37;96.96
40730;BME280;26418;50.070;8.436;2023-03-26T06:30:40;98902.38;;;7.40;97.18
40730;BME280;26418;50.070;8.436;2023-03-26T06:33:06;98897.78;;;7.40;97.20
40730;BME280;26418;50.070;8.436;2023-03-26T06:35:32;98894.81;;;7.42;97.30
40730;BME280;26418;50.070;8.436;2023-03-26T06:37:58;98881.53;;;7.46;97.29
40730;BME280;26418;50.070;8.436;2023-03-26T06:40:24;98898.41;;;7.60;97.12
40730;BME280;26418;50.070;8.436;2023-03-26T06:42:50;98889.28;;;7.70;95.92
40730;BME280;26418;50.070;8.436;2023-03-26T06:45:16;98870.16;;;7.71;95.46
40730;BME280;26418;50.070;8.436;2023-03-26T06:47:41;98885.44;;;7.85;94.46
40730;BME280;26418;50.070;8.436;2023-03-26T06:50:08;98870.72;;;7.82;94.17
40730;BME280;26418;50.070;8.436;2023-03-26T06:52:36;98884.34;;;7.86;94.33
40730;BME280;26418;50.070;8.436;2023-03-26T06:55:01;98880.56;;;7.87;94.18
40730;BME280;26418;50.070;8.436;2023-03-26T06:57:27;98885.44;;;7.85;94.01
40730;BME280;26418;50.070;8.436;2023-03-26T06:59:52;98884.16;;;7.82;94.17
40730;BME280;26418;50.070;8.436;2023-03-26T07:02:18;98881.91;;;7.76;93.94
40730;BME280;26418;50.070;8.436;2023-03-26T07:04:44;98874.06;;;7.65;94.21
40730;BME280;26418;50.070;8.436;2023-03-26T07:07:09;98876.56;;;7.62;94.57
40730;BME280;26418;50.070;8.436;2023-03-26T07:09:35;98876.72;;;7.57;95.04
40730;BME280;26418;50.070;8.436;2023-03-26T07:12:00;98870.16;;;7.49;95.38
40730;BME280;26418;50.070;8.436;2023-03-26T07:14:26;98859.03;;;7.42;95.86
40730;BME280;26418;50.070;8.436;2023-03-26T07:16:59;98867.00;;;7.47;96.43
40730;BME280;26418;50.070;8.436;2023-03-26T07:19:25;98862.72;;;7.46;96.75
40730;BME280;26418;50.070;8.436;2023-03-26T07:21:51;98863.00;;;7.44;97.18
40730;BME280;26418;50.070;8.436;2023-03-26T07:24:17;98858.13;;;7.46;97.50
40730;BME280;26418;50.070;8.436;2023-03-26T07:27:05;98844.53;;;7.51;98.24
40730;BME280;26418;50.070;8.436;2023-03-26T07:29:42;98848.72;;;7.58;98.38
40730;BME280;26418;50.070;8.436;2023-03-26T07:32:27;98837.63;;;7.59;98.40
40730;BME280;26418;50.070;8.436;2023-03-26T07:46:59;98803.69;;;7.81;98.76
40730;BME280;26418;50.070;8.436;2023-03-26T07:49:26;98800.41;;;7.84;98.79
40730;BME280;26418;50.070;8.436;2023-03-26T07:51:53;98795.81;;;7.84;98.93
40730;BME280;26418;50.070;8.436;2023-03-26T07:54:19;98789.03;;;7.87;98.82
40730;BME280;26418;50.070;8.436;2023-03-26T07:56:58;98782.06;;;7.86;98.41
40730;BME280;26418;50.070;8.436;2023-03-26T07:59:51;98785.84;;;7.85;98.84
40730;BME280;26418;50.070;8.436;2023-03-26T08:05:08;98777.94;;;7.89;99.20
40730;BME280;26418;50.070;8.436;2023-03-26T08:10:22;98781.41;;;7.89;98.80
40730;BME280;26418;50.070;8.436;2023-03-26T08:13:19;98783.50;;;7.92;98.85
40730;BME280;26418;50.070;8.436;2023-03-26T08:15:57;98781.91;;;7.91;99.14
40730;BME280;26418;50.070;8.436;2023-03-26T08:21:14;98774.16;;;7.98;99.15
40730;BME280;26418;50.070;8.436;2023-03-26T08:23:54;98768.94;;;8.02;99.41
40730;BME280;26418;50.070;8.436;2023-03-26T08:26:53;98778.50;;;8.08;99.26
40730;BME280;26418;50.070;8.436;2023-03-26T08:31:54;98779.44;;;8.12;99.18
40730;BME280;26418;50.070;8.436;2023-03-26T08:34:22;98777.72;;;8.16;99.11
40730;BME280;26418;50.070;8.436;2023-03-26T08:36:48;98775.50;;;8.18;98.97
40730;BME280;26418;50.070;8.436;2023-03-26T08:39:13;98775.97;;;8.21;99.03
40730;BME280;26418;50.070;8.436;2023-03-26T09:12:15;98743.22;;;8.36;100.00
40730;BME280;26418;50.070;8.436;2023-03-26T09:26:24;98722.44;;;8.19;100.00
40730;BME280;26418;50.070;8.436;2023-03-26T09:34:40;98708.66;;;8.12;99.48
40730;BME280;26418;50.070;8.436;2023-03-26T09:37:34;98690.75;;;8.16;99.72
40730;BME280;26418;50.070;8.436;2023-03-26T09:40:15;98689.03;;;8.29;100.00
40730;BME280;26418;50.070;8.436;2023-03-26T09:57:08;98688.75;;;8.65;92.68
40730;BME280;26418;50.070;8.436;2023-03-26T10:05:20;98690.78;;;8.42;94.08
40730;BME280;26418;50.070;8.436;2023-03-26T10:30:06;98648.09;;;9.53;91.46
40730;BME280;26418;50.070;8.436;2023-03-26T10:35:58;98623.28;;;9.90;90.23
40730;BME280;26418;50.070;8.436;2023-03-26T10:38:57;98625.63;;;9.91;88.38
40730;BME280;26418;50.070;8.436;2023-03-26T10:41:54;98632.09;;;9.99;88.52
40730;BME280;26418;50.070;8.436;2023-03-26T10:47:54;98628.34;;;10.13;88.15
40730;BME280;26418;50.070;8.436;2023-03-26T10:54:22;98609.31;;;10.09;87.48
40730;BME280;26418;50.070;8.436;2023-03-26T10:56:51;98602.44;;;10.12;87.85
40730;BME280;26418;50.070;8.436;2023-03-26T10:59:18;98602.00;;;10.10;87.58
40730;BME280;26418;50.070;8.436;2023-03-26T11:07:57;98607.78;;;9.78;88.88
40730;BME280;26418;50.070;8.436;2023-03-26T11:12:27;98625.06;;;9.56;90.67
40730;BME280;26418;50.070;8.436;2023-03-26T11:17:47;98619.28;;;9.66;93.20
40730;BME280;26418;50.070;8.436;2023-03-26T11:23:35;98597.75;;;10.63;93.01
40730;BME280;26418;50.070;8.436;2023-03-26T11:31:53;98579.50;;;13.10;81.47
40730;BME280;26418;50.070;8.436;2023-03-26T11:34:27;98584.13;;;13.26;77.79
40730;BME280;26418;50.070;8.436;2023-03-26T11:36:56;98589.47;;;13.06;76.46
40730;BME280;26418;50.070;8.436;2023-03-26T11:39:26;98590.16;;;12.71;77.74
40730;BME280;26418;50.070;8.436;2023-03-26T11:42:11;98588.25;;;12.31;78.69
40730;BME280;26418;50.070;8.436;2023-03-26T11:45:04;98576.19;;;12.00;79.86
40730;BME280;26418;50.070;8.436;2023-03-26T11:47:51;98566.28;;;11.79;81.83
40730;BME280;26418;50.070;8.436;2023-03-26T11:50:27;98582.78;;;11.61;82.78
40730;BME280;26418;50.070;8.436;2023-03-26T11:53:10;98586.38;;;11.53;84.04
40730;BME280;26418;50.070;8.436;2023-03-26T11:55:40;98577.47;;;11.40;84.01
40730;BME280;26418;50.070;8.436;2023-03-26T11:58:22;98569.00;;;11.29;82.26
40730;BME280;26418;50.070;8.436;2023-03-26T12:00:51;98580.63;;;11.17;83.70
40730;BME280;26418;50.070;8.436;2023-03-26T12:03:18;98573.19;;;11.14;83.81
40730;BME280;26418;50.070;8.436;2023-03-26T12:05:51;98570.03;;;11.12;81.18
40730;BME280;26418;50.070;8.436;2023-03-26T12:08:34;98572.28;;;11.10;80.86
40730;BME280;26418;50.070;8.436;2023-03-26T12:11:08;98568.34;;;11.32;80.44
40730;BME280;26418;50.070;8.436;2023-03-26T12:13:39;98559.06;;;11.58;80.65
40730;BME280;26418;50.070;8.436;2023-03-26T12:16:18;98555.63;;;11.99;79.88
40730;BME280;26418;50.070;8.436;2023-03-26T12:18:45;98549.34;;;12.23;75.52
40730;BME280;26418;50.070;8.436;2023-03-26T12:21:15;98554.31;;;12.49;75.92
40730;BME280;26418;50.070;8.436;2023-03-26T12:23:54;98538.25;;;12.72;75.51
40730;BME280;26418;50.070;8.436;2023-03-26T12:26:47;98536.41;;;12.93;73.34
40730;BME280;26418;50.070;8.436;2023-03-26T12:29:20;98544.22;;;12.78;73.04
40730;BME280;26418;50.070;8.436;2023-03-26T12:32:02;98536.47;;;12.64;74.01
40730;BME280;26418;50.070;8.436;2023-03-26T12:34:35;98539.34;;;12.55;74.17
40730;BME280;26418;50.070;8.436;2023-03-26T12:37:04;98538.16;;;12.69;76.15
40730;BME280;26418;50.070;8.436;2023-03-26T12:39:31;98538.69;;;12.90;76.25
40730;BME280;26418;50.070;8.436;2023-03-26T12:42:00;98522.13;;;13.12;73.60
40730;BME280;26418;50.070;8.436;2023-03-26T12:44:44;98513.25;;;13.31;72.46
40730;BME280;26418;50.070;8.436;2023-03-26T12:47:25;98512.72;;;13.57;71.75
40730;BME280;26418;50.070;8.436;2023-03-26T12:49:52;98513.97;;;13.79;70.77
40730;BME280;26418;50.070;8.436;2023-03-26T13:03:29;98520.16;;;12.32;73.84
40730;BME280;26418;50.070;8.436;2023-03-26T13:09:01;98507.66;;;12.27;76.83
40730;BME280;26418;50.070;8.436;2023-03-26T13:11:45;98491.78;;;12.58;77.47
40730;BME280;26418;50.070;8.436;2023-03-26T13:17:11;98495.47;;;12.82;75.56
40730;BME280;26418;50.070;8.436;2023-03-26T13:28:16;98487.75;;;11.95;71.30
40730;BME280;26418;50.070;8.436;2023-03-26T13:30:57;98483.59;;;11.98;71.55
40730;BME280;26418;50.070;8.436;2023-03-26T13:33:48;98479.28;;;12.09;71.78
40730;BME280;26418;50.070;8.436;2023-03-26T13:38:56;98478.06;;;12.22;71.86
40730;BME280;26418;50.070;8.436;2023-03-26T13:46:48;98504.41;;;11.40;74.69
40730;BME280;26418;50.070;8.436;2023-03-26T13:49:28;98489.97;;;11.11;76.52
40730;BME280;26418;50.070;8.436;2023-03-26T13:52:18;98487.63;;;11.10;78.05
40730;BME280;26418;50.070;8.436;2023-03-26T13:54:53;98480.50;;;11.05;78.28
40730;BME280;26418;50.070;8.436;2023-03-26T13:57:22;98479.03;;;11.08;78.23
40730;BME280;26418;50.070;8.436;2023-03-26T13:59:53;98483.09;;;11.14;78.06
40730;BME280;26418;50.070;8.436;2023-03-26T14:02:39;98484.09;;;11.22;78.16
40730;BME280;26418;50.070;8.436;2023-03-26T14:05:10;98473.94;;;11.31;78.13
40730;BME280;26418;50.070;8.436;2023-03-26T14:08:01;98470.88;;;11.45;78.37
40730;BME280;26418;50.070;8.436;2023-03-26T14:10:35;98475.13;;;11.58;77.60
40730;BME280;26418;50.070;8.436;2023-03-26T14:13:45;98483.84;;;11.80;77.44
40730;BME280;26418;50.070;8.436;2023-03-26T14:16:28;98464.41;;;11.90;75.83
40730;BME280;26418;50.070;8.436;2023-03-26T14:19:02;98471.50;;;12.07;75.48
40730;BME280;26418;50.070;8.436;2023-03-26T14:21:53;98469.91;;;12.06;71.25
40730;BME280;26418;50.070;8.436;2023-03-26T14:24:41;98470.25;;;12.05;68.98
40730;BME280;26418;50.070;8.436;2023-03-26T14:27:27;98467.56;;;11.92;66.79
40730;BME280;26418;50.070;8.436;2023-03-26T14:41:09;98453.03;;;11.97;66.72
40730;BME280;26418;50.070;8.436;2023-03-26T14:46:19;98450.94;;;12.06;65.67
40730;BME280;26418;50.070;8.436;2023-03-26T14:54:31;98450.66;;;11.83;66.12
40730;BME280;26418;50.070;8.436;2023-03-26T15:03:08;98453.13;;;12.01;65.48
40730;BME280;26418;50.070;8.436;2023-03-26T15:21:58;98428.13;;;12.07;62.10
40730;BME280;26418;50.070;8.436;2023-03-26T15:24:33;98433.56;;;11.95;62.82
40730;BME280;26418;50.070;8.436;2023-03-26T15:27:21;98435.44;;;11.78;64.20
40730;BME280;26418;50.070;8.436;2023-03-26T15:33:05;98460.75;;;11.70;62.82
40730;BME280;26418;50.070;8.436;2023-03-26T15:38:50;98478.78;;;11.38;63.50
40730;BME280;26418;50.070;8.436;2023-03-26T15:41:25;98537.22;;;11.26;64.13
40730;BME280;26418;50.070;8.436;2023-03-26T15:49:28;98571.84;;;9.26;81.79
40730;BME280;26418;50.070;8.436;2023-03-26T15:55:02;98576.03;;;8.68;82.44
40730;BME280;26418;50.070;8.436;2023-03-26T15:57:43;98573.03;;;8.43;82.85
40730;BME280;26418;50.070;8.436;2023-03-26T16:00:21;98564.47;;;8.23;84.02
40730;BME280;26418;50.070;8.436;2023-03-26T16:06:08;98554.53;;;7.97;86.22
40730;BME280;26418;50.070;8.436;2023-03-26T16:11:41;98556.88;;;8.08;89.61
40730;BME280;26418;50.070;8.436;2023-03-26T16:17:00;98571.78;;;8.23;90.85
40730;BME280;26418;50.070;8.436;2023-03-26T16:27:43;98575.44;;;9.09;91.06
40730;BME280;26418;50.070;8.436;2023-03-26T16:32:47;98566.03;;;9.46;87.54
40730;BME280;26418;50.070;8.436;2023-03-26T16:37:49;98565.72;;;9.47;86.58
40730;BME280;26418;50.070;8.436;2023-03-26T16:45:38;98562.94;;;9.35;85.21
40730;BME280;26418;50.070;8.436;2023-03-26T16:50:57;98563.63;;;9.23;85.38
40730;BME280;26418;50.070;8.436;2023-03-26T16:56:20;98566.66;;;9.21;86.81
40730;BME280;26418;50.070;8.436;2023-03-26T16:58:53;98563.97;;;9.21;86.91
40730;BME280;26418;50.070;8.436;2023-03-26T17:01:45;98571.91;;;9.18;86.14
40730;BME280;26418;50.070;8.436;2023-03-26T17:04:17;98565.91;;;9.12;86.31
40730;BME280;26418;50.070;8.436;2023-03-26T17:09:43;98581.94;;;9.08;85.83
40730;BME280;26418;50.070;8.436;2023-03-26T17:12:40;98577.66;;;8.99;86.35
40730;BME280;26418;50.070;8.436;2023-03-26T17:21:14;98593.72;;;8.95;85.52
40730;BME280;26418;50.070;8.436;2023-03-26T17:24:22;98592.63;;;8.87;85.78
40730;BME280;26418;50.070;8.436;2023-03-26T17:29:59;98605.34;;;8.69;84.72
40730;BME280;26418;50.070;8.436;2023-03-26T17:40:58;98588.41;;;8.42;85.88
40730;BME280;26418;50.070;8.436;2023-03-26T17:43:50;98602.22;;;8.49;86.33
40730;BME280;26418;50.070;8.436;2023-03-26T17:46:30;98600.31;;;8.50;86.37
40730;BME280;26418;50.070;8.436;2023-03-26T17:49:02;98603.00;;;8.50;85.82
40730;BME280;26418;50.070;8.436;2023-03-26T17:51:35;98606.94;;;8.44;86.26
40730;BME280;26418;50.070;8.436;2023-03-26T17:54:32;98608.69;;;8.40;87.17
40730;BME280;26418;50.070;8.436;2023-03-26T17:57:05;98612.81;;;8.37;86.74
40730;BME280;26418;50.070;8.436;2023-03-26T17:59:34;98611.53;;;8.34;87.14
40730;BME280;26418;50.070;8.436;2023-03-26T18:02:03;98604.44;;;8.21;87.87
40730;BME280;26418;50.070;8.436;2023-03-26T18:04:36;98634.03;;;8.30;88.46
40730;BME280;26418;50.070;8.436;2023-03-26T18:07:48;98633.25;;;8.29;88.21
40730;BME280;26418;50.070;8.436;2023-03-26T18:13:18;98635.94;;;8.21;89.31
40730;BME280;26418;50.070;8.436;2023-03-26T18:18:42;98642.75;;;8.09;91.07
40730;BME280;26418;50.070;8.436;2023-03-26T18:21:16;98641.78;;;8.05;91.97
40730;BME280;26418;50.070;8.436;2023-03-26T18:23:47;98646.69;;;8.03;92.01
40730;BME280;26418;50.070;8.436;2023-03-26T18:26:18;98634.81;;;7.95;92.07
40730;BME280;26418;50.070;8.436;2023-03-26T18:29:09;98650.31;;;7.98;92.06
40730;BME280;26418;50.070;8.436;2023-03-26T18:31:39;98654.16;;;7.97;92.14
40730;BME280;26418;50.070;8.436;2023-03-26T18:34:15;98654.09;;;7.89;92.76
40730;BME280;26418;50.070;8.436;2023-03-26T18:36:46;98653.94;;;7.85;93.76